Time;durP1;ratioP1;P1;durP2;ratioP2;P2;SDS_P1;SDS_P2;PMS_P1;PMS_P2;Temp;Humidity;BMP_temperature;BMP_pressure;BME280_temperature;BME280_humidity;BME280_pressure;Samples;Min_cycle;Max_cycle;Signal;HPM_P1;HPM_P2
2023/05/09 00:01:10;;;;;;;;;;;16.20;99.90;;;;;;5032886;28;19945;-39
2023/05/09 00:03:36;;;;;;;;;;;16.20;99.90;;;;;;5028504;28;20305;-39
2023/05/09 00:06:03;;;;;;;;;;;16.20;99.90;;;;;;5014946;28;19994;-39
2023/05/09 00:08:30;;;;;;;;;;;16.20;99.90;;;;;;5031149;28;19987;-38
2023/05/09 00:10:58;;;;;;;;;;;16.10;99.90;;;;;;5031242;28;19984;-36
2023/05/09 00:13:25;;;;;;;;;;;16.10;99.90;;;;;;5032030;28;20000;-37
2023/05/09 00:15:52;;;;;;;;;;;16.10;99.90;;;;;;5032786;28;20006;-37
2023/05/09 00:18:19;;;;;;;;;;;16.00;99.90;;;;;;5032794;28;19933;-37
2023/05/09 00:20:46;;;;;;;;;;;16.00;99.90;;;;;;5032255;28;19944;-37
2023/05/09 00:23:12;;;;;;;;;;;16.00;99.90;;;;;;5032129;28;19987;-38
2023/05/09 00:25:39;;;;;;;;;;;16.00;99.90;;;;;;5024227;28;20035;-37
2023/05/09 00:28:07;;;;;;;;;;;16.00;99.90;;;;;;5018085;28;20392;-37
2023/05/09 00:30:34;;;;;;;;;;;16.00;99.90;;;;;;5031791;28;19939;-36
2023/05/09 00:33:01;;;;;;;;;;;16.00;99.90;;;;;;5032323;28;19973;-37
2023/05/09 00:35:27;;;;;;;;;;;16.00;99.90;;;;;;5032896;28;20447;-35
2023/05/09 00:37:54;;;;;;;;;;;16.00;99.90;;;;;;5029405;28;19956;-37
2023/05/09 00:40:21;;;;;;;;;;;16.00;99.90;;;;;;5031224;28;19987;-38
2023/05/09 00:42:47;;;;;;;;;;;16.00;99.90;;;;;;5028216;28;19990;-37
2023/05/09 00:45:15;;;;;;;;;;;16.00;99.90;;;;;;5024712;28;19970;-36
2023/05/09 00:47:42;;;;;;;;;;;16.00;99.90;;;;;;5031355;28;19987;-37
2023/05/09 00:50:09;;;;;;;;;;;15.90;99.90;;;;;;5011531;28;20000;-37
2023/05/09 00:52:36;;;;;;;;;;;15.90;99.90;;;;;;5027756;28;20028;-38
2023/05/09 00:55:03;;;;;;;;;;;15.90;99.90;;;;;;5030560;28;19947;-36
2023/05/09 00:57:30;;;;;;;;;;;15.90;99.90;;;;;;5032349;28;19954;-37
2023/05/09 00:59:56;;;;;;;;;;;15.90;99.90;;;;;;5027598;28;20385;-37
2023/05/09 01:02:24;;;;;;;;;;;15.90;99.90;;;;;;5033045;28;20384;-38
2023/05/09 01:04:51;;;;;;;;;;;15.90;99.90;;;;;;5021293;28;20132;-36
2023/05/09 01:07:19;;;;;;;;;;;15.80;99.90;;;;;;5031893;28;20374;-37
2023/05/09 01:09:47;;;;;;;;;;;15.90;99.90;;;;;;5030669;28;19988;-37
2023/05/09 01:12:14;;;;;;;;;;;15.80;99.90;;;;;;5030574;28;19946;-37
2023/05/09 01:14:42;;;;;;;;;;;15.80;99.90;;;;;;5031976;28;19952;-37
2023/05/09 01:17:10;;;;;;;;;;;15.90;99.90;;;;;;5030439;28;19960;-38
2023/05/09 01:19:45;;;;;;;;;;;15.80;99.90;;;;;;5029788;28;19936;-37
2023/05/09 01:22:12;;;;;;;;;;;15.80;99.90;;;;;;5028921;28;20028;-38
2023/05/09 01:25:12;;;;;;;;;;;15.80;99.90;;;;;;5015726;28;19947;-37
2023/05/09 01:27:43;;;;;;;;;;;15.80;99.90;;;;;;4989505;28;20318;-38
2023/05/09 01:30:12;;;;;;;;;;;15.80;99.90;;;;;;4990048;28;19951;-37
2023/05/09 01:32:38;;;;;;;;;;;15.70;99.90;;;;;;5009548;28;19946;-37
2023/05/09 01:35:05;;;;;;;;;;;15.70;99.90;;;;;;5029106;28;19946;-37
2023/05/09 01:40:54;;;;;;;;;;;15.60;99.90;;;;;;5026552;28;20435;-38
2023/05/09 01:43:21;;;;;;;;;;;15.60;99.90;;;;;;5029864;28;19945;-37
2023/05/09 01:45:49;;;;;;;;;;;15.60;99.90;;;;;;5031408;28;19964;-38
2023/05/09 01:48:16;;;;;;;;;;;15.60;99.90;;;;;;5032632;28;20283;-38
2023/05/09 01:50:43;;;;;;;;;;;15.60;99.90;;;;;;5030552;28;19948;-37
2023/05/09 01:53:09;;;;;;;;;;;15.50;99.90;;;;;;5029543;28;20458;-38
2023/05/09 01:55:36;;;;;;;;;;;15.50;99.90;;;;;;5029646;28;19979;-37
2023/05/09 01:58:03;;;;;;;;;;;15.50;99.90;;;;;;5030922;28;19960;-38
2023/05/09 02:00:29;;;;;;;;;;;15.50;99.90;;;;;;5031260;28;19964;-37
2023/05/09 02:02:57;;;;;;;;;;;15.50;99.90;;;;;;5031674;28;19932;-38
2023/05/09 02:05:24;;;;;;;;;;;15.50;99.90;;;;;;5028178;28;19986;-38
2023/05/09 02:07:51;;;;;;;;;;;15.40;99.90;;;;;;5026049;28;19940;-37
2023/05/09 02:10:19;;;;;;;;;;;15.40;99.90;;;;;;5024969;28;20353;-38
2023/05/09 02:12:46;;;;;;;;;;;15.40;99.90;;;;;;5031847;28;19967;-38
2023/05/09 02:15:12;;;;;;;;;;;15.50;99.90;;;;;;5031043;28;19988;-38
2023/05/09 02:17:39;;;;;;;;;;;15.40;99.90;;;;;;5029054;28;20010;-37
2023/05/09 02:20:10;;;;;;;;;;;15.40;99.90;;;;;;5030559;28;19969;-38
2023/05/09 02:22:37;;;;;;;;;;;15.40;99.90;;;;;;5027038;28;19939;-38
2023/05/09 02:25:06;;;;;;;;;;;15.30;99.90;;;;;;5027328;28;20002;-37
2023/05/09 02:27:32;;;;;;;;;;;15.30;99.90;;;;;;5031289;28;20395;-37
2023/05/09 02:30:01;;;;;;;;;;;15.30;99.90;;;;;;5030682;28;20030;-38
2023/05/09 02:32:29;;;;;;;;;;;15.30;99.90;;;;;;5029373;28;19940;-37
2023/05/09 02:34:55;;;;;;;;;;;15.30;99.90;;;;;;5031041;28;19990;-37
2023/05/09 02:37:23;;;;;;;;;;;15.30;99.90;;;;;;5030220;28;20332;-38
2023/05/09 02:39:50;;;;;;;;;;;15.30;99.90;;;;;;5031016;28;20280;-37
2023/05/09 02:42:18;;;;;;;;;;;15.30;99.90;;;;;;5023101;28;20033;-37
2023/05/09 02:44:45;;;;;;;;;;;15.30;99.90;;;;;;5025705;28;19925;-38
2023/05/09 02:47:11;;;;;;;;;;;15.30;99.90;;;;;;5029826;28;19999;-37
2023/05/09 02:49:38;;;;;;;;;;;15.30;99.90;;;;;;5029605;28;20018;-37
2023/05/09 02:52:05;;;;;;;;;;;15.30;99.90;;;;;;5028352;28;19939;-37
2023/05/09 02:54:33;;;;;;;;;;;15.30;99.90;;;;;;5032923;28;20403;-39
2023/05/09 02:56:59;;;;;;;;;;;15.30;99.90;;;;;;5033058;28;19971;-37
2023/05/09 02:59:26;;;;;;;;;;;15.30;99.90;;;;;;5035127;28;19998;-37
2023/05/09 03:01:52;;;;;;;;;;;15.30;99.90;;;;;;5030785;28;20455;-37
2023/05/09 03:04:19;;;;;;;;;;;15.30;99.90;;;;;;5033311;28;20037;-38
2023/05/09 03:06:46;;;;;;;;;;;15.30;99.90;;;;;;5029904;28;19995;-38
2023/05/09 03:09:12;;;;;;;;;;;15.30;99.90;;;;;;5033746;28;19939;-37
2023/05/09 03:11:40;;;;;;;;;;;15.20;99.90;;;;;;5032742;28;20483;-37
2023/05/09 03:14:09;;;;;;;;;;;15.30;99.90;;;;;;5033385;28;20407;-38
2023/05/09 03:16:36;;;;;;;;;;;15.30;99.90;;;;;;5032207;28;19964;-37
2023/05/09 03:19:02;;;;;;;;;;;15.20;99.90;;;;;;5027993;28;20442;-37
2023/05/09 03:21:30;;;;;;;;;;;15.20;99.90;;;;;;5031953;28;20025;-38
2023/05/09 03:23:57;;;;;;;;;;;15.20;99.90;;;;;;5032517;28;20038;-38
2023/05/09 03:26:25;;;;;;;;;;;15.20;99.90;;;;;;5034121;28;19986;-37
2023/05/09 03:28:53;;;;;;;;;;;15.20;99.90;;;;;;5034609;28;19945;-38
2023/05/09 03:31:19;;;;;;;;;;;15.30;99.90;;;;;;5033389;28;19943;-37
2023/05/09 03:33:46;;;;;;;;;;;15.20;99.90;;;;;;5032858;28;20006;-38
2023/05/09 03:36:13;;;;;;;;;;;15.20;99.90;;;;;;5024306;28;19940;-38
2023/05/09 03:38:39;;;;;;;;;;;15.30;99.90;;;;;;5032036;28;20047;-38
2023/05/09 03:41:06;;;;;;;;;;;15.30;99.90;;;;;;5033982;28;19995;-38
2023/05/09 03:43:33;;;;;;;;;;;15.30;99.90;;;;;;5033251;28;19969;-37
2023/05/09 03:46:01;;;;;;;;;;;15.30;99.90;;;;;;5032275;28;20207;-38
2023/05/09 03:48:27;;;;;;;;;;;15.30;99.90;;;;;;5024166;28;19939;-37
2023/05/09 03:50:54;;;;;;;;;;;15.30;99.90;;;;;;5018425;28;20000;-35
2023/05/09 03:53:21;;;;;;;;;;;15.30;99.90;;;;;;5029202;28;20020;-37
2023/05/09 03:55:47;;;;;;;;;;;15.30;99.90;;;;;;5031079;28;19937;-38
2023/05/09 03:58:14;;;;;;;;;;;15.30;99.90;;;;;;5021146;28;20009;-38
2023/05/09 04:00:41;;;;;;;;;;;15.30;99.90;;;;;;5026966;28;19945;-38
2023/05/09 04:03:09;;;;;;;;;;;15.30;99.90;;;;;;5031803;28;19995;-38
2023/05/09 04:05:36;;;;;;;;;;;15.30;99.90;;;;;;5027392;28;20401;-38
2023/05/09 04:08:02;;;;;;;;;;;15.30;99.90;;;;;;5023566;28;19945;-38
2023/05/09 04:10:30;;;;;;;;;;;15.30;99.90;;;;;;5031231;28;19979;-38
2023/05/09 04:12:56;;;;;;;;;;;15.30;99.90;;;;;;5029749;28;20369;-38
2023/05/09 04:15:23;;;;;;;;;;;15.40;99.90;;;;;;5031242;28;20361;-38
2023/05/09 04:17:49;;;;;;;;;;;15.40;99.90;;;;;;5031486;28;19957;-38
2023/05/09 04:20:17;;;;;;;;;;;15.30;99.90;;;;;;5031606;28;19982;-38
2023/05/09 04:22:44;;;;;;;;;;;15.40;99.90;;;;;;5032490;28;19947;-38
2023/05/09 04:25:13;;;;;;;;;;;15.40;99.90;;;;;;5032250;28;19987;-38
2023/05/09 04:27:39;;;;;;;;;;;15.40;99.90;;;;;;5032340;28;20388;-37
2023/05/09 04:30:06;;;;;;;;;;;15.40;99.90;;;;;;5031393;28;19938;-37
2023/05/09 04:32:34;;;;;;;;;;;15.40;99.90;;;;;;5030864;28;19941;-38
2023/05/09 04:35:01;;;;;;;;;;;15.40;99.90;;;;;;5031914;28;19966;-38
2023/05/09 04:37:30;;;;;;;;;;;15.40;99.90;;;;;;5027542;28;19957;-37
2023/05/09 04:39:57;;;;;;;;;;;15.40;99.90;;;;;;5030720;28;20036;-38
2023/05/09 04:42:23;;;;;;;;;;;15.40;99.90;;;;;;5030137;28;20290;-37
2023/05/09 04:44:50;;;;;;;;;;;15.40;99.90;;;;;;5031835;28;20032;-37
2023/05/09 04:47:17;;;;;;;;;;;15.50;99.90;;;;;;5030916;28;20384;-38
2023/05/09 04:49:43;;;;;;;;;;;15.50;99.90;;;;;;5031791;28;20703;-37
2023/05/09 04:52:10;;;;;;;;;;;15.50;99.90;;;;;;5030217;28;20404;-38
2023/05/09 04:54:38;;;;;;;;;;;15.50;99.90;;;;;;5032994;28;19941;-38
2023/05/09 04:57:05;;;;;;;;;;;15.50;99.90;;;;;;5031565;28;19999;-38
2023/05/09 04:59:32;;;;;;;;;;;15.50;99.90;;;;;;5027993;28;20038;-36
2023/05/09 05:01:58;;;;;;;;;;;15.50;99.90;;;;;;5025068;28;20233;-38
2023/05/09 05:04:25;;;;;;;;;;;15.50;99.90;;;;;;5024871;28;20601;-38
2023/05/09 05:06:52;;;;;;;;;;;15.60;99.90;;;;;;5028270;28;20037;-38
2023/05/09 05:09:18;;;;;;;;;;;15.60;99.90;;;;;;5030857;28;19943;-39
2023/05/09 05:11:46;;;;;;;;;;;15.60;99.90;;;;;;5024869;28;19946;-38
2023/05/09 05:14:13;;;;;;;;;;;15.60;99.90;;;;;;5019177;28;19990;-39
2023/05/09 05:16:40;;;;;;;;;;;15.60;99.90;;;;;;5024081;28;20055;-36
2023/05/09 05:19:06;;;;;;;;;;;15.50;99.90;;;;;;5029555;28;20013;-36
2023/05/09 05:21:33;;;;;;;;;;;15.60;99.90;;;;;;5029374;28;20288;-37
2023/05/09 05:24:00;;;;;;;;;;;15.70;99.90;;;;;;5030766;28;19948;-37
2023/05/09 05:26:27;;;;;;;;;;;15.60;99.90;;;;;;5026938;28;19949;-37
2023/05/09 05:28:56;;;;;;;;;;;15.70;99.90;;;;;;5031927;28;19987;-37
2023/05/09 05:31:22;;;;;;;;;;;15.70;99.90;;;;;;5030293;28;19962;-38
2023/05/09 05:33:49;;;;;;;;;;;15.70;99.90;;;;;;5028717;28;20049;-38
2023/05/09 05:36:16;;;;;;;;;;;15.70;99.90;;;;;;5029520;28;19949;-37
2023/05/09 05:38:42;;;;;;;;;;;15.70;99.90;;;;;;5020807;28;20449;-39
2023/05/09 05:41:10;;;;;;;;;;;15.80;99.90;;;;;;5024444;28;20393;-39
2023/05/09 05:43:36;;;;;;;;;;;15.70;99.90;;;;;;5023399;28;19950;-37
2023/05/09 05:46:04;;;;;;;;;;;15.80;99.90;;;;;;5029416;28;19939;-36
2023/05/09 05:48:31;;;;;;;;;;;15.80;99.90;;;;;;5029726;28;19950;-38
2023/05/09 05:50:58;;;;;;;;;;;15.90;99.90;;;;;;5027989;28;19941;-37
2023/05/09 05:53:24;;;;;;;;;;;15.80;99.90;;;;;;5022986;28;19945;-38
2023/05/09 05:55:51;;;;;;;;;;;15.90;99.90;;;;;;5015456;28;19943;-36
2023/05/09 05:58:18;;;;;;;;;;;15.90;99.90;;;;;;5029743;28;19954;-37
2023/05/09 06:00:45;;;;;;;;;;;15.90;99.90;;;;;;5019887;28;19965;-37
2023/05/09 06:03:13;;;;;;;;;;;16.00;99.90;;;;;;5024684;28;19957;-38
2023/05/09 06:05:41;;;;;;;;;;;16.00;99.90;;;;;;5015927;28;19962;-37
2023/05/09 06:08:08;;;;;;;;;;;16.00;99.90;;;;;;5030321;28;19943;-37
2023/05/09 06:10:34;;;;;;;;;;;16.00;99.90;;;;;;5030524;28;19988;-37
2023/05/09 06:13:01;;;;;;;;;;;16.10;99.90;;;;;;5027677;28;19995;-38
2023/05/09 06:15:28;;;;;;;;;;;16.10;99.90;;;;;;5030100;28;19994;-37
2023/05/09 06:17:54;;;;;;;;;;;16.10;99.90;;;;;;5028175;28;19969;-38
2023/05/09 06:20:22;;;;;;;;;;;16.10;99.90;;;;;;5030600;28;19945;-37
2023/05/09 06:22:49;;;;;;;;;;;16.20;99.90;;;;;;5029905;28;19983;-37
2023/05/09 06:25:16;;;;;;;;;;;16.10;99.90;;;;;;5027958;28;19941;-37
2023/05/09 06:27:43;;;;;;;;;;;16.20;99.90;;;;;;5011456;28;19988;-37
2023/05/09 06:30:10;;;;;;;;;;;16.20;99.90;;;;;;5035534;28;20040;-38
2023/05/09 06:32:37;;;;;;;;;;;16.20;99.90;;;;;;5030460;28;20420;-38
2023/05/09 06:35:04;;;;;;;;;;;16.20;99.90;;;;;;5034793;28;19941;-37
2023/05/09 06:37:34;;;;;;;;;;;16.20;99.90;;;;;;5033666;28;20000;-38
2023/05/09 06:40:00;;;;;;;;;;;16.20;99.90;;;;;;5033570;28;20373;-37
2023/05/09 06:42:28;;;;;;;;;;;16.20;99.90;;;;;;5032907;28;19953;-37
2023/05/09 06:44:55;;;;;;;;;;;16.10;99.90;;;;;;5034587;28;19952;-38
2023/05/09 06:47:22;;;;;;;;;;;16.20;99.90;;;;;;5035557;28;19948;-38
2023/05/09 06:49:48;;;;;;;;;;;16.20;99.90;;;;;;5034452;28;19997;-38
2023/05/09 06:52:15;;;;;;;;;;;16.10;99.90;;;;;;5035341;28;19939;-37
2023/05/09 06:54:43;;;;;;;;;;;16.10;99.90;;;;;;5033332;28;19941;-37
2023/05/09 06:57:10;;;;;;;;;;;16.10;99.90;;;;;;5035391;28;19988;-38
2023/05/09 06:59:36;;;;;;;;;;;16.10;99.90;;;;;;5035163;28;20023;-37
2023/05/09 07:02:03;;;;;;;;;;;16.10;99.90;;;;;;5034908;28;20015;-37
2023/05/09 07:04:30;;;;;;;;;;;16.10;99.90;;;;;;5023047;28;20410;-38
2023/05/09 07:06:58;;;;;;;;;;;16.10;99.90;;;;;;5014273;28;19985;-38
2023/05/09 07:09:26;;;;;;;;;;;16.10;99.90;;;;;;5019731;28;19947;-38
2023/05/09 07:11:54;;;;;;;;;;;16.20;99.90;;;;;;5033128;28;20275;-38
2023/05/09 07:14:21;;;;;;;;;;;16.20;99.90;;;;;;5035038;28;19947;-38
2023/05/09 07:16:48;;;;;;;;;;;16.20;99.90;;;;;;5034790;28;20005;-38
2023/05/09 07:19:14;;;;;;;;;;;16.20;99.90;;;;;;5034781;28;19993;-38
2023/05/09 07:21:41;;;;;;;;;;;16.30;99.90;;;;;;5033877;28;19946;-38
2023/05/09 07:24:08;;;;;;;;;;;16.40;99.90;;;;;;5033495;28;19950;-38
2023/05/09 07:26:35;;;;;;;;;;;16.50;99.90;;;;;;5033540;28;20397;-37
2023/05/09 07:29:03;;;;;;;;;;;16.50;99.90;;;;;;5033752;28;19989;-37
2023/05/09 07:31:29;;;;;;;;;;;16.60;99.90;;;;;;5034717;28;19941;-38
2023/05/09 07:33:56;;;;;;;;;;;16.60;99.90;;;;;;5034275;28;19966;-38
2023/05/09 07:36:23;;;;;;;;;;;16.70;99.90;;;;;;5033440;28;19988;-38
2023/05/09 07:38:51;;;;;;;;;;;16.70;99.90;;;;;;5034298;28;19965;-39
2023/05/09 07:41:18;;;;;;;;;;;16.80;99.90;;;;;;5033935;28;19952;-39
2023/05/09 07:43:45;;;;;;;;;;;16.70;99.90;;;;;;5033610;28;19940;-39
2023/05/09 07:46:13;;;;;;;;;;;16.70;99.90;;;;;;5033318;28;19945;-38
2023/05/09 07:48:39;;;;;;;;;;;16.70;99.90;;;;;;5033262;28;20355;-39
2023/05/09 07:51:06;;;;;;;;;;;16.80;99.90;;;;;;5034098;28;20386;-38
2023/05/09 07:53:32;;;;;;;;;;;16.80;99.90;;;;;;5034160;28;20356;-38
2023/05/09 07:55:59;;;;;;;;;;;16.80;99.90;;;;;;5033209;28;20394;-38
2023/05/09 07:58:26;;;;;;;;;;;16.80;99.90;;;;;;5032464;28;19962;-38
2023/05/09 08:00:55;;;;;;;;;;;16.80;99.90;;;;;;5032266;28;19946;-38
2023/05/09 08:03:23;;;;;;;;;;;16.80;99.90;;;;;;5030396;28;19996;-38
2023/05/09 08:05:49;;;;;;;;;;;16.80;99.90;;;;;;5013074;28;19949;-38
2023/05/09 08:08:16;;;;;;;;;;;16.90;99.90;;;;;;5015911;28;19942;-38
2023/05/09 08:10:43;;;;;;;;;;;16.90;99.90;;;;;;5014125;28;19957;-39
2023/05/09 08:13:10;;;;;;;;;;;16.90;99.90;;;;;;5024497;28;20488;-39
2023/05/09 08:15:36;;;;;;;;;;;17.00;99.90;;;;;;5025027;28;19981;-39
2023/05/09 08:18:03;;;;;;;;;;;17.00;99.90;;;;;;5033015;28;19996;-38
2023/05/09 08:20:33;;;;;;;;;;;17.10;99.90;;;;;;5032581;28;19959;-39
2023/05/09 08:22:59;;;;;;;;;;;17.10;99.90;;;;;;5032670;28;20465;-39
2023/05/09 08:25:26;;;;;;;;;;;17.20;99.90;;;;;;5031957;28;20032;-39
2023/05/09 08:27:53;;;;;;;;;;;17.20;99.90;;;;;;5030936;28;20319;-39
2023/05/09 08:30:20;;;;;;;;;;;17.20;99.90;;;;;;4994222;22;20018;-38
2023/05/09 08:32:46;;;;;;;;;;;17.30;99.90;;;;;;5053485;28;19993;-39
2023/05/09 08:35:13;;;;;;;;;;;17.30;99.90;;;;;;5070208;28;19992;-39
2023/05/09 08:37:41;;;;;;;;;;;17.30;99.90;;;;;;5071214;28;19943;-38
2023/05/09 08:40:08;;;;;;;;;;;17.30;99.90;;;;;;5055384;28;19963;-39
2023/05/09 08:42:36;;;;;;;;;;;17.40;99.90;;;;;;5061933;28;19949;-39
2023/05/09 08:45:05;;;;;;;;;;;17.40;99.90;;;;;;5069992;28;20034;-38
2023/05/09 08:47:33;;;;;;;;;;;17.50;99.90;;;;;;5069303;28;19978;-39
2023/05/09 08:50:00;;;;;;;;;;;17.50;99.90;;;;;;5070162;28;19997;-39
2023/05/09 08:52:26;;;;;;;;;;;17.60;99.90;;;;;;5070961;28;19942;-39
2023/05/09 08:54:54;;;;;;;;;;;17.60;99.90;;;;;;5071497;28;19996;-38
2023/05/09 08:57:21;;;;;;;;;;;17.60;99.90;;;;;;5069274;28;20417;-39
2023/05/09 08:59:48;;;;;;;;;;;17.60;99.90;;;;;;5051241;28;20014;-39
2023/05/09 09:02:14;;;;;;;;;;;17.60;99.90;;;;;;5050800;28;20000;-38
2023/05/09 09:04:41;;;;;;;;;;;17.70;99.90;;;;;;5049865;28;20011;-38
2023/05/09 09:07:08;;;;;;;;;;;17.70;99.90;;;;;;5055161;28;20024;-38
2023/05/09 09:09:34;;;;;;;;;;;17.70;99.90;;;;;;5071021;28;19945;-38
2023/05/09 09:12:03;;;;;;;;;;;17.80;99.90;;;;;;5068043;28;19984;-39
2023/05/09 09:14:30;;;;;;;;;;;17.80;99.90;;;;;;5069548;28;19953;-39
2023/05/09 09:16:56;;;;;;;;;;;17.90;99.90;;;;;;5069638;28;20000;-39
2023/05/09 09:19:23;;;;;;;;;;;17.90;99.90;;;;;;5068236;28;20346;-39
2023/05/09 09:21:52;;;;;;;;;;;17.80;99.90;;;;;;5068446;28;19980;-39
2023/05/09 09:24:21;;;;;;;;;;;17.80;99.90;;;;;;5068480;28;20619;-39
2023/05/09 09:26:49;;;;;;;;;;;17.80;99.90;;;;;;5069028;28;20380;-37
2023/05/09 09:29:17;;;;;;;;;;;17.90;99.90;;;;;;5070704;28;19946;-37
2023/05/09 09:31:44;;;;;;;;;;;17.90;99.90;;;;;;5090196;28;20016;-38
2023/05/09 09:34:10;;;;;;;;;;;18.00;99.90;;;;;;5089854;28;19943;-39
2023/05/09 09:36:37;;;;;;;;;;;18.20;99.90;;;;;;5059060;28;19951;-38
2023/05/09 09:39:04;;;;;;;;;;;18.20;99.90;;;;;;5070643;28;20331;-38
2023/05/09 09:41:31;;;;;;;;;;;18.30;99.90;;;;;;5070481;28;20399;-38
2023/05/09 09:43:58;;;;;;;;;;;18.40;99.90;;;;;;5055449;28;19947;-39
2023/05/09 09:46:26;;;;;;;;;;;18.50;99.90;;;;;;5072008;28;19945;-39
2023/05/09 09:48:56;;;;;;;;;;;18.50;99.90;;;;;;5072579;28;19942;-39
2023/05/09 09:51:23;;;;;;;;;;;18.60;99.90;;;;;;5090676;28;19939;-39
2023/05/09 09:53:49;;;;;;;;;;;18.60;99.90;;;;;;5089734;28;19946;-39
2023/05/09 09:56:16;;;;;;;;;;;18.70;99.90;;;;;;5090858;28;19939;-38
2023/05/09 09:58:43;;;;;;;;;;;18.80;99.90;;;;;;5071758;28;19941;-38
2023/05/09 10:01:10;;;;;;;;;;;18.90;99.90;;;;;;5090029;28;20358;-38
2023/05/09 10:03:38;;;;;;;;;;;18.90;99.90;;;;;;5073665;28;19950;-38
2023/05/09 10:06:05;;;;;;;;;;;19.00;99.90;;;;;;5076574;28;20027;-39
2023/05/09 10:08:31;;;;;;;;;;;19.00;99.90;;;;;;5094618;28;19953;-39
2023/05/09 10:10:59;;;;;;;;;;;19.10;99.90;;;;;;5076803;28;19971;-39
2023/05/09 10:13:25;;;;;;;;;;;19.20;99.90;;;;;;5093499;28;19938;-38
2023/05/09 10:15:52;;;;;;;;;;;19.30;99.90;;;;;;5094396;28;20394;-38
2023/05/09 10:18:20;;;;;;;;;;;19.30;99.90;;;;;;5091855;28;19946;-39
2023/05/09 10:20:48;;;;;;;;;;;19.30;99.90;;;;;;5093489;28;20043;-38
2023/05/09 10:23:15;;;;;;;;;;;19.30;99.90;;;;;;5094207;28;20032;-38
2023/05/09 10:25:44;;;;;;;;;;;19.40;99.90;;;;;;5094152;28;19947;-38
2023/05/09 10:28:11;;;;;;;;;;;19.50;99.90;;;;;;5076563;28;19946;-38
2023/05/09 10:30:40;;;;;;;;;;;19.50;99.90;;;;;;5093620;28;20055;-40
2023/05/09 10:33:08;;;;;;;;;;;19.60;99.90;;;;;;5092608;28;19974;-38
2023/05/09 10:35:36;;;;;;;;;;;19.60;99.90;;;;;;5071488;28;19996;-38
2023/05/09 10:38:04;;;;;;;;;;;19.60;99.90;;;;;;5074025;28;20052;-38
2023/05/09 10:40:31;;;;;;;;;;;19.60;99.90;;;;;;5073795;28;20408;-38
2023/05/09 10:42:57;;;;;;;;;;;19.60;99.90;;;;;;5073762;28;20459;-39
2023/05/09 10:45:24;;;;;;;;;;;19.60;99.90;;;;;;5079450;28;19948;-39
2023/05/09 10:47:51;;;;;;;;;;;19.60;99.90;;;;;;5093642;28;20001;-38
2023/05/09 10:50:18;;;;;;;;;;;19.50;99.90;;;;;;5076004;28;20128;-37
2023/05/09 10:53:03;;;;;;;;;;;19.50;99.90;;;;;;5075508;28;20398;-37
2023/05/09 10:55:36;;;;;;;;;;;19.60;99.90;;;;;;5074094;28;20361;-37
2023/05/09 10:58:07;;;;;;;;;;;19.60;99.90;;;;;;5093079;28;19994;-38
2023/05/09 11:00:34;;;;;;;;;;;19.70;99.90;;;;;;5071054;28;20006;-38
2023/05/09 11:03:07;;;;;;;;;;;19.70;99.90;;;;;;5093496;28;19942;-38
2023/05/09 11:05:38;;;;;;;;;;;19.80;99.90;;;;;;5075814;28;19943;-38
2023/05/09 11:08:20;;;;;;;;;;;19.80;99.90;;;;;;5073845;28;19944;-38
2023/05/09 11:10:48;;;;;;;;;;;19.80;99.90;;;;;;5072556;28;19938;-38
2023/05/09 11:13:18;;;;;;;;;;;19.90;99.90;;;;;;5092543;28;19944;-38
2023/05/09 11:15:51;;;;;;;;;;;19.90;99.90;;;;;;5091634;28;19941;-38
2023/05/09 11:18:18;;;;;;;;;;;19.90;99.90;;;;;;5092616;28;19944;-37
2023/05/09 11:20:45;;;;;;;;;;;19.90;99.90;;;;;;5092636;28;19957;-38
2023/05/09 11:23:11;;;;;;;;;;;19.80;99.90;;;;;;5074198;28;19982;-38
2023/05/09 11:25:38;;;;;;;;;;;19.80;99.90;;;;;;5072971;28;19942;-37
2023/05/09 11:28:06;;;;;;;;;;;19.80;99.90;;;;;;5074153;28;19952;-37
2023/05/09 11:30:38;;;;;;;;;;;19.90;99.90;;;;;;5092072;28;19966;-39
2023/05/09 11:33:05;;;;;;;;;;;19.90;99.90;;;;;;5075333;28;19938;-37
2023/05/09 11:35:32;;;;;;;;;;;20.00;99.90;;;;;;5071143;28;19992;-38
2023/05/09 11:37:59;;;;;;;;;;;20.10;99.90;;;;;;5072650;28;19942;-38
2023/05/09 11:40:26;;;;;;;;;;;20.20;99.90;;;;;;5072552;28;20324;-38
2023/05/09 11:42:54;;;;;;;;;;;20.20;99.90;;;;;;5073805;28;19944;-38
2023/05/09 11:45:22;;;;;;;;;;;20.20;99.90;;;;;;5091791;28;19967;-38
2023/05/09 11:47:49;;;;;;;;;;;20.30;99.90;;;;;;5074403;28;19942;-38
2023/05/09 11:50:16;;;;;;;;;;;20.40;99.90;;;;;;5092431;28;19944;-38
2023/05/09 11:52:42;;;;;;;;;;;20.40;99.90;;;;;;5092234;28;19941;-38
2023/05/09 11:55:10;;;;;;;;;;;20.50;99.90;;;;;;5092442;28;20324;-38
2023/05/09 11:57:39;;;;;;;;;;;20.50;99.90;;;;;;5073285;28;20434;-38
2023/05/09 12:00:08;;;;;;;;;;;20.60;99.90;;;;;;5091231;28;19962;-38
2023/05/09 12:02:36;;;;;;;;;;;20.70;99.90;;;;;;5092550;28;20045;-38
2023/05/09 12:05:07;;;;;;;;;;;20.70;99.90;;;;;;5073078;28;19946;-37
2023/05/09 12:07:34;;;;;;;;;;;20.70;99.90;;;;;;5092280;28;20429;-37
2023/05/09 12:10:03;;;;;;;;;;;20.80;99.90;;;;;;5092313;28;20011;-37
2023/05/09 12:12:29;;;;;;;;;;;20.80;99.90;;;;;;5091964;28;19950;-38
2023/05/09 12:14:56;;;;;;;;;;;20.80;99.90;;;;;;5090340;28;19940;-38
2023/05/09 12:17:23;;;;;;;;;;;20.90;99.90;;;;;;5086914;28;19945;-38
2023/05/09 12:19:51;;;;;;;;;;;20.90;99.90;;;;;;5091552;28;20060;-38
2023/05/09 12:22:18;;;;;;;;;;;21.00;99.90;;;;;;5074407;28;19945;-38
2023/05/09 12:24:45;;;;;;;;;;;21.00;99.90;;;;;;5073714;28;19944;-39
2023/05/09 12:27:12;;;;;;;;;;;21.00;99.90;;;;;;5073565;28;20476;-38
2023/05/09 12:29:41;;;;;;;;;;;21.00;99.90;;;;;;5091800;28;19965;-42
2023/05/09 12:32:07;;;;;;;;;;;21.00;99.90;;;;;;5078699;28;19949;-38
2023/05/09 12:34:34;;;;;;;;;;;21.00;99.90;;;;;;5066955;28;19945;-38
2023/05/09 12:37:02;;;;;;;;;;;21.10;99.90;;;;;;5091865;28;19943;-38
2023/05/09 12:39:29;;;;;;;;;;;21.10;99.90;;;;;;5073508;28;19953;-39
2023/05/09 12:41:55;;;;;;;;;;;21.10;99.90;;;;;;5089126;28;19960;-37
2023/05/09 12:44:23;;;;;;;;;;;21.10;99.90;;;;;;5091098;28;19977;-36
2023/05/09 12:46:53;;;;;;;;;;;21.10;99.90;;;;;;5091569;28;19939;-37
2023/05/09 12:49:20;;;;;;;;;;;21.10;99.90;;;;;;5091441;28;19997;-38
2023/05/09 12:51:47;;;;;;;;;;;21.00;99.90;;;;;;5091192;28;19947;-37
2023/05/09 12:54:16;;;;;;;;;;;21.00;99.90;;;;;;5091464;28;19944;-38
2023/05/09 12:56:42;;;;;;;;;;;20.90;99.90;;;;;;5072152;28;19946;-37
2023/05/09 12:59:13;;;;;;;;;;;20.90;99.90;;;;;;5070649;28;19942;-38
2023/05/09 13:01:40;;;;;;;;;;;20.90;99.90;;;;;;5089337;28;20000;-38
2023/05/09 13:04:07;;;;;;;;;;;20.80;99.90;;;;;;5088800;28;19990;-39
2023/05/09 13:06:34;;;;;;;;;;;20.70;99.90;;;;;;5091404;28;20323;-38
2023/05/09 13:09:01;;;;;;;;;;;20.70;99.90;;;;;;5092684;28;20027;-38
2023/05/09 13:11:29;;;;;;;;;;;20.60;99.90;;;;;;5074784;28;19944;-38
2023/05/09 13:13:56;;;;;;;;;;;20.60;99.90;;;;;;5073742;28;19943;-38
2023/05/09 13:16:22;;;;;;;;;;;20.50;99.90;;;;;;5092844;28;20464;-37
2023/05/09 13:18:49;;;;;;;;;;;20.40;99.90;;;;;;5074897;28;19940;-37
2023/05/09 13:21:16;;;;;;;;;;;20.40;99.90;;;;;;5092527;28;19960;-37
2023/05/09 13:23:44;;;;;;;;;;;20.30;99.90;;;;;;5091130;28;19991;-37
2023/05/09 13:26:10;;;;;;;;;;;20.20;99.90;;;;;;5073813;28;20001;-37
2023/05/09 13:28:38;;;;;;;;;;;20.20;99.90;;;;;;5088691;28;19937;-37
2023/05/09 13:31:05;;;;;;;;;;;20.10;99.90;;;;;;5065970;28;19967;-37
2023/05/09 13:33:32;;;;;;;;;;;20.00;99.90;;;;;;5069237;28;20029;-37
2023/05/09 13:35:58;;;;;;;;;;;19.90;99.90;;;;;;5067534;28;19941;-37
2023/05/09 13:38:25;;;;;;;;;;;19.80;99.90;;;;;;5067762;28;19947;-37
2023/05/09 13:40:52;;;;;;;;;;;19.80;99.90;;;;;;5054574;28;19967;-37
2023/05/09 13:43:19;;;;;;;;;;;19.80;99.90;;;;;;5066547;28;19941;-38
2023/05/09 13:45:47;;;;;;;;;;;19.70;99.90;;;;;;5070147;28;20373;-38
2023/05/09 13:48:13;;;;;;;;;;;19.70;99.90;;;;;;5064831;28;19990;-38
2023/05/09 13:50:40;;;;;;;;;;;19.70;99.90;;;;;;5068881;28;20437;-38
2023/05/09 13:53:07;;;;;;;;;;;19.70;99.90;;;;;;5070077;28;20412;-38
2023/05/09 13:55:34;;;;;;;;;;;19.70;99.90;;;;;;5068993;28;19942;-38
2023/05/09 13:58:00;;;;;;;;;;;19.70;99.90;;;;;;5063139;28;19942;-38
2023/05/09 14:00:27;;;;;;;;;;;19.60;99.90;;;;;;5068876;28;20523;-38
2023/05/09 14:02:55;;;;;;;;;;;19.60;99.90;;;;;;5069889;28;19935;-38
2023/05/09 14:05:22;;;;;;;;;;;19.60;99.90;;;;;;5067408;28;19995;-37
2023/05/09 14:07:48;;;;;;;;;;;19.60;99.90;;;;;;5067349;28;19971;-38
2023/05/09 14:10:16;;;;;;;;;;;19.60;99.90;;;;;;5069083;28;20301;-38
2023/05/09 14:12:43;;;;;;;;;;;19.50;99.90;;;;;;5067066;28;19938;-38
2023/05/09 14:15:10;;;;;;;;;;;19.40;99.90;;;;;;5069052;28;19948;-38
2023/05/09 14:17:36;;;;;;;;;;;19.40;99.90;;;;;;5068971;28;19988;-39
2023/05/09 14:20:05;;;;;;;;;;;19.30;99.90;;;;;;5061361;28;19995;-39